Priozersk, Russia
Current Conditions -  °F | °C
As of 5:20 PM on Thursday 23 Oct 2014 (Local Time) from EFLP Reporting Station
Broken Clouds Broken Clouds  
Wind Chill: 27°   Ceiling: 3000
Heat Index: 27°   Visibility: 6mi
Dew Point: 16°   Wind: 1mph
Humidity: 64%   Direction: 150°SSE
Pressure: 30.59"   Gusts: NA
Location:  61.04°N, 30.14°E
Report Text: EFLP 231420Z AUTO 15001KT 9999 BKN030 M03/M09 Q1036
Loading
Personal Weather Stations






























Interactive Weather Map
Tropical Storm Tracking
New forecast layout! Learn more

10-Day Weather Forecast

Advertisements
Track Severe Weather on mobile